createdAt,value
2022-12-31T00:01:36.659Z,8.94
2022-12-31T00:04:57.967Z,8.97
2022-12-31T00:08:19.674Z,8.98
2022-12-31T00:11:41.529Z,9.02
2022-12-31T00:15:04.396Z,9.03
2022-12-31T00:18:26.962Z,9.08
2022-12-31T00:21:48.822Z,9.10
2022-12-31T00:25:11.247Z,9.15
2022-12-31T00:28:33.277Z,9.18
2022-12-31T00:31:56.124Z,9.19
2022-12-31T00:35:18.047Z,9.26
2022-12-31T00:38:40.419Z,9.31
2022-12-31T00:42:02.649Z,9.32
2022-12-31T00:45:24.142Z,9.38
2022-12-31T00:48:47.528Z,9.40
2022-12-31T00:52:09.201Z,9.45
2022-12-31T00:55:31.927Z,9.48
2022-12-31T00:58:53.732Z,9.52
2022-12-31T01:02:15.543Z,9.56
2022-12-31T01:05:39.561Z,9.60
2022-12-31T01:09:01.087Z,9.60
2022-12-31T01:12:23.033Z,9.66
2022-12-31T01:15:44.753Z,9.67
2022-12-31T01:19:09.310Z,9.67
2022-12-31T01:22:32.240Z,9.72
2022-12-31T01:25:54.043Z,9.72
2022-12-31T01:29:16.996Z,9.72
2022-12-31T01:32:38.667Z,9.75
2022-12-31T01:36:03.473Z,9.78
2022-12-31T01:39:26.292Z,9.84
2022-12-31T01:42:55.166Z,9.86
2022-12-31T01:46:28.197Z,9.91
2022-12-31T01:49:53.476Z,9.94
2022-12-31T01:53:17.544Z,9.95
2022-12-31T01:56:44.229Z,9.96
2022-12-31T02:00:07.802Z,9.99
2022-12-31T02:03:30.785Z,10.02
2022-12-31T02:06:57.268Z,10.04
2022-12-31T02:10:19.106Z,10.05
2022-12-31T02:13:42.122Z,10.06
2022-12-31T02:17:11.390Z,10.08
2022-12-31T02:21:19.457Z,10.09
2022-12-31T02:25:15.457Z,10.11
2022-12-31T02:29:06.389Z,10.12
2022-12-31T02:32:38.205Z,10.12
2022-12-31T02:36:04.040Z,10.14
2022-12-31T02:39:25.913Z,10.16
2022-12-31T02:42:53.295Z,10.16
2022-12-31T02:46:28.003Z,10.19
2022-12-31T02:50:02.218Z,10.21
2022-12-31T02:53:42.986Z,10.19
2022-12-31T02:57:12.810Z,10.21
2022-12-31T03:00:59.627Z,10.25
2022-12-31T03:04:36.272Z,10.26
2022-12-31T03:07:59.215Z,10.26
2022-12-31T03:11:34.766Z,10.30
2022-12-31T03:14:56.365Z,10.33
2022-12-31T03:18:39.911Z,10.35
2022-12-31T03:22:18.773Z,10.37
2022-12-31T03:25:41.788Z,10.39
2022-12-31T03:29:04.263Z,10.41
2022-12-31T03:32:25.541Z,10.42
2022-12-31T03:35:48.856Z,10.40
2022-12-31T03:39:10.739Z,10.39
2022-12-31T03:42:33.932Z,10.40
2022-12-31T03:45:58.667Z,10.39
2022-12-31T03:49:21.164Z,10.40
2022-12-31T03:52:42.942Z,10.40
2022-12-31T03:56:05.000Z,10.40
2022-12-31T03:59:27.779Z,10.40
2022-12-31T04:02:50.050Z,10.38
2022-12-31T04:06:11.559Z,10.41
2022-12-31T04:09:33.356Z,10.45
2022-12-31T04:12:54.832Z,10.46
2022-12-31T04:16:17.537Z,10.47
2022-12-31T04:19:39.178Z,10.49
2022-12-31T04:23:00.459Z,10.53
2022-12-31T04:26:22.223Z,10.55
2022-12-31T04:29:43.546Z,10.60
2022-12-31T04:33:06.078Z,10.64
2022-12-31T04:36:28.219Z,10.66
2022-12-31T04:39:49.758Z,10.69
2022-12-31T04:43:11.456Z,10.73
2022-12-31T04:46:34.707Z,10.77
2022-12-31T04:49:57.905Z,10.80
2022-12-31T04:53:19.751Z,10.83
2022-12-31T04:56:41.545Z,10.84
2022-12-31T05:00:03.918Z,10.85
2022-12-31T05:03:27.394Z,10.88
2022-12-31T05:06:50.399Z,10.90
2022-12-31T05:10:12.172Z,10.91
2022-12-31T05:13:33.996Z,10.93
2022-12-31T05:16:56.022Z,10.94
2022-12-31T05:20:17.814Z,10.96
2022-12-31T05:23:40.811Z,10.95
2022-12-31T05:27:02.667Z,10.96
2022-12-31T05:30:24.884Z,10.99
2022-12-31T05:33:46.594Z,11.01
2022-12-31T05:37:08.064Z,11.03
2022-12-31T05:40:32.236Z,11.06
2022-12-31T05:43:54.162Z,11.09
2022-12-31T05:47:16.795Z,11.15
2022-12-31T05:50:38.287Z,11.17
2022-12-31T05:54:00.135Z,11.20
2022-12-31T05:57:23.033Z,11.23
2022-12-31T06:00:46.101Z,11.27
2022-12-31T06:04:07.533Z,11.30
2022-12-31T06:07:29.275Z,11.32
2022-12-31T06:10:50.960Z,11.35
2022-12-31T06:14:14.560Z,11.37
2022-12-31T06:17:36.247Z,11.40
2022-12-31T06:20:59.053Z,11.37
2022-12-31T06:24:20.686Z,11.41
2022-12-31T06:27:42.424Z,11.44
2022-12-31T06:31:07.590Z,11.48
2022-12-31T06:34:29.317Z,11.49
2022-12-31T06:37:52.615Z,11.52
2022-12-31T06:41:15.822Z,11.55
2022-12-31T06:44:37.401Z,11.57
2022-12-31T06:47:59.968Z,11.60
2022-12-31T06:51:22.935Z,11.61
2022-12-31T06:54:45.401Z,11.63
2022-12-31T06:58:07.819Z,11.65
2022-12-31T07:01:38.240Z,11.66
2022-12-31T07:05:10.979Z,11.68
2022-12-31T07:08:42.734Z,11.72
2022-12-31T07:12:13.393Z,11.73
2022-12-31T07:15:48.206Z,11.80
2022-12-31T07:19:21.615Z,11.83
2022-12-31T07:22:45.928Z,11.86
2022-12-31T07:26:17.159Z,11.87
2022-12-31T07:29:52.544Z,11.91
2022-12-31T07:33:26.312Z,11.92
2022-12-31T07:37:02.440Z,11.93
2022-12-31T07:40:37.687Z,11.91
2022-12-31T07:44:08.806Z,11.93
2022-12-31T07:47:30.922Z,11.94
2022-12-31T07:50:54.786Z,11.95
2022-12-31T07:54:16.463Z,11.95
2022-12-31T07:57:44.362Z,11.94
2022-12-31T08:01:06.968Z,11.93
2022-12-31T08:04:33.639Z,11.93
2022-12-31T08:08:01.541Z,11.90
2022-12-31T08:11:33.649Z,11.89
2022-12-31T08:14:57.393Z,11.88
2022-12-31T08:18:19.313Z,11.90
2022-12-31T08:21:50.000Z,11.90
2022-12-31T08:25:23.680Z,11.90
2022-12-31T08:28:58.935Z,11.89
2022-12-31T08:32:25.003Z,11.88
2022-12-31T08:35:57.661Z,11.91
2022-12-31T08:39:32.055Z,11.93
2022-12-31T08:43:07.679Z,11.96
2022-12-31T08:46:34.603Z,12.02
2022-12-31T08:49:58.485Z,12.08
2022-12-31T08:53:20.852Z,12.15
2022-12-31T08:56:50.717Z,12.22
2022-12-31T09:00:15.145Z,12.32
2022-12-31T09:03:54.338Z,12.38
2022-12-31T09:07:22.917Z,12.45
2022-12-31T09:10:52.786Z,12.55
2022-12-31T09:14:24.759Z,12.63
2022-12-31T09:17:48.094Z,12.68
2022-12-31T09:21:11.784Z,12.74
2022-12-31T09:24:35.505Z,12.81
2022-12-31T09:28:09.287Z,12.88
2022-12-31T09:31:37.435Z,12.93
2022-12-31T09:35:07.480Z,12.99
2022-12-31T09:38:33.295Z,13.06
2022-12-31T09:42:19.371Z,13.08
2022-12-31T09:46:01.073Z,13.14
2022-12-31T09:49:55.409Z,13.18
2022-12-31T09:53:32.811Z,13.24
2022-12-31T09:57:15.256Z,13.29
2022-12-31T10:00:42.715Z,13.32
2022-12-31T10:04:46.710Z,13.34
2022-12-31T10:08:17.369Z,13.36
2022-12-31T10:11:58.904Z,13.39
2022-12-31T10:15:41.507Z,13.40
2022-12-31T10:19:32.582Z,13.43
2022-12-31T10:23:27.401Z,13.45
2022-12-31T10:26:58.776Z,13.45
2022-12-31T10:30:23.034Z,13.48
2022-12-31T10:33:56.244Z,13.50
2022-12-31T10:37:19.387Z,13.51
2022-12-31T10:41:07.124Z,13.48
2022-12-31T10:45:03.659Z,13.49
2022-12-31T10:49:03.426Z,13.52
2022-12-31T10:53:13.955Z,13.53
2022-12-31T10:57:07.866Z,13.55
2022-12-31T11:00:31.875Z,13.58
2022-12-31T11:04:34.859Z,13.57
2022-12-31T11:08:12.141Z,13.57
2022-12-31T11:11:46.056Z,13.58
2022-12-31T11:15:39.492Z,13.60
2022-12-31T11:19:08.232Z,13.59
2022-12-31T11:22:44.649Z,13.57
2022-12-31T11:26:19.692Z,13.57
2022-12-31T11:29:56.013Z,13.58
2022-12-31T11:33:34.076Z,13.60
2022-12-31T11:37:19.405Z,13.61
2022-12-31T11:40:44.485Z,13.63
2022-12-31T11:44:19.310Z,13.65
2022-12-31T11:48:28.975Z,13.67
2022-12-31T11:51:53.220Z,13.71
2022-12-31T11:55:27.277Z,13.70
2022-12-31T11:58:52.162Z,13.74
2022-12-31T12:02:26.118Z,13.77
2022-12-31T12:05:47.813Z,13.82
2022-12-31T12:09:15.919Z,13.86
2022-12-31T12:12:40.961Z,13.88
2022-12-31T12:16:07.395Z,13.91
2022-12-31T12:19:33.248Z,13.93
2022-12-31T12:22:58.344Z,13.94
2022-12-31T12:26:28.367Z,13.97
2022-12-31T12:29:50.125Z,14.00
2022-12-31T12:33:18.541Z,14.04
2022-12-31T12:36:48.076Z,14.09
2022-12-31T12:40:21.919Z,14.11
2022-12-31T12:43:43.374Z,14.13
2022-12-31T12:47:07.620Z,14.16
2022-12-31T12:50:40.268Z,14.18
2022-12-31T12:54:12.858Z,14.23
2022-12-31T12:57:45.374Z,14.26
2022-12-31T13:01:17.036Z,14.26
2022-12-31T13:04:52.561Z,14.30
2022-12-31T13:08:28.236Z,14.35
2022-12-31T13:12:07.685Z,14.39
2022-12-31T13:15:35.145Z,14.44
2022-12-31T13:19:04.089Z,14.47
2022-12-31T13:22:31.166Z,14.51
2022-12-31T13:26:05.124Z,14.52
2022-12-31T13:29:31.736Z,14.58
2022-12-31T13:33:00.411Z,14.62
2022-12-31T13:36:24.722Z,14.69
2022-12-31T13:39:48.097Z,14.73
2022-12-31T13:43:17.770Z,14.80
2022-12-31T13:46:47.784Z,14.85
2022-12-31T13:50:18.408Z,14.92
2022-12-31T13:53:48.724Z,14.97
2022-12-31T13:57:19.571Z,15.03
2022-12-31T14:00:45.866Z,15.11
2022-12-31T14:04:16.788Z,15.13
2022-12-31T14:07:45.910Z,14.96
2022-12-31T14:11:19.738Z,14.95
2022-12-31T14:14:50.835Z,14.87
2022-12-31T14:18:20.413Z,14.75
2022-12-31T14:21:48.502Z,14.60
2022-12-31T14:25:21.009Z,14.53
2022-12-31T14:28:48.647Z,14.54
2022-12-31T14:32:55.398Z,14.52
2022-12-31T14:36:37.610Z,14.54
2022-12-31T14:40:10.358Z,14.54
2022-12-31T14:43:53.978Z,14.53
2022-12-31T14:47:28.171Z,14.51
2022-12-31T14:50:50.278Z,14.50
2022-12-31T14:54:29.128Z,14.49
2022-12-31T14:58:26.469Z,14.46
2022-12-31T15:01:34.330Z,14.43
2022-12-31T15:05:12.548Z,14.41
2022-12-31T15:08:50.331Z,14.37
2022-12-31T15:12:43.116Z,14.37
2022-12-31T15:16:23.474Z,14.37
2022-12-31T15:20:16.646Z,14.36
2022-12-31T15:23:42.233Z,14.36
2022-12-31T15:27:06.300Z,14.36
2022-12-31T15:30:36.476Z,14.33
2022-12-31T15:34:02.371Z,14.35
2022-12-31T15:37:33.504Z,14.35
2022-12-31T15:40:55.569Z,14.36
2022-12-31T15:44:24.626Z,14.36
2022-12-31T15:47:49.834Z,14.37
2022-12-31T15:51:18.407Z,14.35
2022-12-31T15:54:43.834Z,14.35
2022-12-31T15:58:08.165Z,14.35
2022-12-31T16:01:33.782Z,14.36
2022-12-31T16:04:56.616Z,14.38
2022-12-31T16:08:22.539Z,14.39
2022-12-31T16:11:44.549Z,14.41
2022-12-31T16:15:07.023Z,14.42
2022-12-31T16:18:38.524Z,14.45
2022-12-31T16:22:04.106Z,14.47
2022-12-31T16:25:31.464Z,14.50
2022-12-31T16:28:55.230Z,14.50
2022-12-31T16:32:19.151Z,14.52
2022-12-31T16:35:40.709Z,14.53
2022-12-31T16:39:23.471Z,14.54
2022-12-31T16:42:47.558Z,14.54
2022-12-31T16:46:12.640Z,14.57
2022-12-31T16:49:38.831Z,14.57
2022-12-31T16:53:04.226Z,14.61
2022-12-31T16:56:33.604Z,14.61
2022-12-31T17:00:01.606Z,14.65
2022-12-31T17:03:25.640Z,14.68
2022-12-31T17:06:48.247Z,14.70
2022-12-31T17:10:19.455Z,14.74
2022-12-31T17:13:41.219Z,14.79
2022-12-31T17:17:07.552Z,14.83
2022-12-31T17:20:30.886Z,14.87
2022-12-31T17:23:56.213Z,14.93
2022-12-31T17:27:18.481Z,14.98
2022-12-31T17:30:41.327Z,15.01
2022-12-31T17:34:33.708Z,15.04
2022-12-31T17:37:55.782Z,15.08
2022-12-31T17:41:24.095Z,15.13
2022-12-31T17:44:45.914Z,15.17
2022-12-31T17:48:07.471Z,15.21
2022-12-31T17:51:30.767Z,15.26
2022-12-31T17:54:52.626Z,15.30
2022-12-31T17:58:19.831Z,15.33
2022-12-31T18:01:43.719Z,15.40
2022-12-31T18:05:14.722Z,15.46
2022-12-31T18:08:37.774Z,15.51
2022-12-31T18:12:01.704Z,15.52
2022-12-31T18:15:25.070Z,15.53
2022-12-31T18:18:46.790Z,15.57
2022-12-31T18:22:08.397Z,15.62
2022-12-31T18:25:31.403Z,15.66
2022-12-31T18:28:53.959Z,15.70
2022-12-31T18:32:21.139Z,15.73
2022-12-31T18:36:08.156Z,15.80
2022-12-31T18:39:24.671Z,15.82
2022-12-31T18:42:47.436Z,15.83
2022-12-31T18:46:12.157Z,15.87
2022-12-31T18:49:33.725Z,15.89
2022-12-31T18:52:55.515Z,15.90
2022-12-31T18:56:19.439Z,15.92
2022-12-31T18:59:42.839Z,15.96
2022-12-31T19:03:05.579Z,15.98
2022-12-31T19:06:27.537Z,16.00
2022-12-31T19:09:53.000Z,15.98
2022-12-31T19:13:19.824Z,16.02
2022-12-31T19:16:43.039Z,16.02
2022-12-31T19:20:05.605Z,16.00
2022-12-31T19:23:27.136Z,16.00
2022-12-31T19:26:48.993Z,15.99
2022-12-31T19:30:20.360Z,15.99
2022-12-31T19:33:44.065Z,15.99
2022-12-31T19:37:05.696Z,15.98
2022-12-31T19:40:30.325Z,15.97
2022-12-31T19:43:51.801Z,15.98
2022-12-31T19:47:14.158Z,16.01
2022-12-31T19:50:36.929Z,16.02
2022-12-31T19:54:00.932Z,16.00
2022-12-31T19:57:22.625Z,15.98
2022-12-31T20:00:47.955Z,15.95
2022-12-31T20:04:12.834Z,15.96
2022-12-31T20:07:36.005Z,15.94
2022-12-31T20:10:59.037Z,15.94
2022-12-31T20:14:20.446Z,15.93
2022-12-31T20:17:42.159Z,15.88
2022-12-31T20:21:03.988Z,15.90
2022-12-31T20:24:27.170Z,15.91
2022-12-31T20:27:48.736Z,15.87
2022-12-31T20:31:12.011Z,15.88
2022-12-31T20:34:33.544Z,15.83
2022-12-31T20:37:55.396Z,15.85
2022-12-31T20:41:19.902Z,15.86
2022-12-31T20:44:41.478Z,15.84
2022-12-31T20:48:02.560Z,15.83
2022-12-31T20:51:25.436Z,15.82
2022-12-31T20:54:47.343Z,15.82
2022-12-31T20:58:10.742Z,15.78
2022-12-31T21:02:11.218Z,15.79
2022-12-31T21:05:14.707Z,15.82
2022-12-31T21:08:37.090Z,15.82
2022-12-31T21:12:15.994Z,15.81
2022-12-31T21:15:38.916Z,15.75
2022-12-31T21:19:01.552Z,15.77
2022-12-31T21:22:24.184Z,15.78
2022-12-31T21:25:46.708Z,15.80
2022-12-31T21:29:08.164Z,15.83
2022-12-31T21:32:31.187Z,15.85
2022-12-31T21:35:54.011Z,15.87
2022-12-31T21:39:16.559Z,15.86
2022-12-31T21:42:38.261Z,15.87
2022-12-31T21:46:04.470Z,15.87
2022-12-31T21:49:27.463Z,15.84
2022-12-31T21:52:49.159Z,15.86
2022-12-31T21:56:11.497Z,15.87
2022-12-31T22:00:09.143Z,15.89
2022-12-31T22:03:32.241Z,15.89
2022-12-31T22:06:55.460Z,15.88
2022-12-31T22:10:17.464Z,15.87
2022-12-31T22:13:39.607Z,15.90
2022-12-31T22:17:00.995Z,15.93
2022-12-31T22:20:27.592Z,15.91
2022-12-31T22:23:53.236Z,15.94
2022-12-31T22:27:28.610Z,15.95
2022-12-31T22:30:51.399Z,15.94
2022-12-31T22:34:12.899Z,15.94
2022-12-31T22:41:19.590Z,15.98
2022-12-31T22:44:41.542Z,15.98
2022-12-31T22:48:02.799Z,15.96
2022-12-31T22:51:24.571Z,15.98
2022-12-31T22:54:46.182Z,15.99
2022-12-31T22:58:09.195Z,15.96
2022-12-31T23:01:31.006Z,15.98
2022-12-31T23:04:52.943Z,16.01
2022-12-31T23:08:34.500Z,16.01
2022-12-31T23:11:56.183Z,16.00
2022-12-31T23:15:36.459Z,15.98
2022-12-31T23:19:15.312Z,15.97
2022-12-31T23:22:54.079Z,15.99
2022-12-31T23:26:15.607Z,16.00
2022-12-31T23:29:45.655Z,16.00
2022-12-31T23:33:15.147Z,16.00
2022-12-31T23:36:36.847Z,16.01
2022-12-31T23:39:58.830Z,15.98
2022-12-31T23:43:23.166Z,15.99
2022-12-31T23:46:45.525Z,16.00
2022-12-31T23:50:09.771Z,16.00
2022-12-31T23:53:31.417Z,15.98
2022-12-31T23:56:53.241Z,15.95
